sensor_id;sensor_type;location;lat;lon;timestamp;pressure;altitude;pressure_sealevel;temperature;humidity
50684;BME280;36654;45.042;38.994;2022-10-04T00:03:04;100870.84;;;15.38;64.59
50684;BME280;36654;45.042;38.994;2022-10-04T00:05:31;100877.03;;;15.40;64.88
50684;BME280;36654;45.042;38.994;2022-10-04T00:08:12;100869.06;;;15.32;64.87
50684;BME280;36654;45.042;38.994;2022-10-04T00:10:42;100852.19;;;15.28;64.97
50684;BME280;36654;45.042;38.994;2022-10-04T00:13:21;100853.97;;;15.28;65.26
50684;BME280;36654;45.042;38.994;2022-10-04T00:15:48;100861.09;;;15.27;65.19
50684;BME280;36654;45.042;38.994;2022-10-04T00:18:37;100854.00;;;15.23;65.42
50684;BME280;36654;45.042;38.994;2022-10-04T00:21:06;100849.59;;;15.16;65.77
50684;BME280;36654;45.042;38.994;2022-10-04T00:26:03;100825.69;;;14.92;66.05
50684;BME280;36654;45.042;38.994;2022-10-04T00:28:42;100843.44;;;15.02;66.54
50684;BME280;36654;45.042;38.994;2022-10-04T00:31:10;100843.47;;;14.99;66.47
50684;BME280;36654;45.042;38.994;2022-10-04T00:33:53;100836.38;;;14.98;66.71
50684;BME280;36654;45.042;38.994;2022-10-04T00:47:32;100833.72;;;14.92;67.19
50684;BME280;36654;45.042;38.994;2022-10-04T00:50:51;100822.16;;;14.89;66.85
50684;BME280;36654;45.042;38.994;2022-10-04T00:54:02;100820.41;;;14.82;67.02
50684;BME280;36654;45.042;38.994;2022-10-04T00:56:24;100826.63;;;14.84;67.17
50684;BME280;36654;45.042;38.994;2022-10-04T01:01:20;100828.44;;;14.79;67.20
50684;BME280;36654;45.042;38.994;2022-10-04T01:03:50;100813.34;;;14.75;67.34
50684;BME280;36654;45.042;38.994;2022-10-04T01:06:19;100779.63;;;14.56;67.52
50684;BME280;36654;45.042;38.994;2022-10-04T01:08:54;100812.44;;;14.72;67.34
50684;BME280;36654;45.042;38.994;2022-10-04T01:11:35;100809.78;;;14.70;67.45
50684;BME280;36654;45.042;38.994;2022-10-04T01:14:08;100820.44;;;14.70;67.72
50684;BME280;36654;45.042;38.994;2022-10-04T01:16:36;100809.78;;;14.70;67.57
50684;BME280;36654;45.042;38.994;2022-10-04T01:21:45;100799.13;;;14.67;67.75
50684;BME280;36654;45.042;38.994;2022-10-04T01:26:40;100807.16;;;14.65;67.77
50684;BME280;36654;45.042;38.994;2022-10-04T01:31:45;100806.25;;;14.68;68.04
50684;BME280;36654;45.042;38.994;2022-10-04T01:34:17;100801.78;;;14.67;67.87
50684;BME280;36654;45.042;38.994;2022-10-04T01:36:43;100807.13;;;14.69;67.68
50684;BME280;36654;45.042;38.994;2022-10-04T01:39:13;100809.78;;;14.70;67.88
50684;BME280;36654;45.042;38.994;2022-10-04T01:41:48;100807.13;;;14.72;67.80
50684;BME280;36654;45.042;38.994;2022-10-04T01:46:51;100816.88;;;14.74;67.61
50684;BME280;36654;45.042;38.994;2022-10-04T01:49:20;100817.78;;;14.75;67.43
50684;BME280;36654;45.042;38.994;2022-10-04T01:52:12;100816.88;;;14.77;67.24
50684;BME280;36654;45.042;38.994;2022-10-04T01:54:49;100820.41;;;14.79;67.10
50684;BME280;36654;45.042;38.994;2022-10-04T01:57:21;100814.22;;;14.80;67.04
50684;BME280;36654;45.042;38.994;2022-10-04T02:00:09;100816.88;;;14.80;67.12
50684;BME280;36654;45.042;38.994;2022-10-04T02:03:04;100815.09;;;14.79;67.26
50684;BME280;36654;45.042;38.994;2022-10-04T02:05:36;100815.09;;;14.79;67.14
50684;BME280;36654;45.042;38.994;2022-10-04T02:08:06;100813.31;;;14.77;67.02
50684;BME280;36654;45.042;38.994;2022-10-04T02:10:34;100817.75;;;14.79;67.02
50684;BME280;36654;45.042;38.994;2022-10-04T02:13:06;100815.09;;;14.79;67.01
50684;BME280;36654;45.042;38.994;2022-10-04T02:15:34;100821.31;;;14.80;66.83
50684;BME280;36654;45.042;38.994;2022-10-04T02:18:08;100820.44;;;14.76;67.04
50684;BME280;36654;45.042;38.994;2022-10-04T02:20:38;100810.66;;;14.74;66.91
50684;BME280;36654;45.042;38.994;2022-10-04T02:23:05;100816.88;;;14.80;66.50
50684;BME280;36654;45.042;38.994;2022-10-04T02:25:31;100821.31;;;14.81;66.37
50684;BME280;36654;45.042;38.994;2022-10-04T02:27:57;100825.72;;;14.82;66.39
50684;BME280;36654;45.042;38.994;2022-10-04T02:30:23;100818.66;;;14.83;66.40
50684;BME280;36654;45.042;38.994;2022-10-04T02:32:55;100811.53;;;14.80;66.24
50684;BME280;36654;45.042;38.994;2022-10-04T02:35:23;100810.59;;;14.84;66.46
50684;BME280;36654;45.042;38.994;2022-10-04T02:40:56;100816.00;;;14.77;66.81
50684;BME280;36654;45.042;38.994;2022-10-04T02:43:30;100810.66;;;14.78;66.85
50684;BME280;36654;45.042;38.994;2022-10-04T02:46:08;100816.88;;;14.77;67.09
50684;BME280;36654;45.042;38.994;2022-10-04T02:48:43;100801.81;;;14.65;66.72
50684;BME280;36654;45.042;38.994;2022-10-04T02:56:59;100826.75;;;14.57;67.23
50684;BME280;36654;45.042;38.994;2022-10-04T02:59:26;100817.84;;;14.55;67.63
50684;BME280;36654;45.042;38.994;2022-10-04T03:01:56;100811.63;;;14.48;67.99
50684;BME280;36654;45.042;38.994;2022-10-04T03:04:27;100823.22;;;14.53;67.85
50684;BME280;36654;45.042;38.994;2022-10-04T03:06:54;100829.41;;;14.51;68.19
50684;BME280;36654;45.042;38.994;2022-10-04T03:09:21;100825.88;;;14.45;68.37
50684;BME280;36654;45.042;38.994;2022-10-04T03:11:48;100805.50;;;14.23;68.51
50684;BME280;36654;45.042;38.994;2022-10-04T03:14:21;100829.47;;;14.35;68.71
50684;BME280;36654;45.042;38.994;2022-10-04T03:16:50;100820.59;;;14.22;69.58
50684;BME280;36654;45.042;38.994;2022-10-04T03:19:19;100828.59;;;14.22;70.01
50684;BME280;36654;45.042;38.994;2022-10-04T03:21:48;100847.28;;;14.18;70.24
50684;BME280;36654;45.042;38.994;2022-10-04T03:24:28;100833.09;;;14.00;70.95
50684;BME280;36654;45.042;38.994;2022-10-04T03:26:56;100845.50;;;14.01;71.18
50684;BME280;36654;45.042;38.994;2022-10-04T03:29:26;100842.88;;;13.94;71.34
50684;BME280;36654;45.042;38.994;2022-10-04T03:31:54;100844.66;;;13.89;71.84
50684;BME280;36654;45.042;38.994;2022-10-04T03:34:37;100849.97;;;13.81;72.38
50684;BME280;36654;45.042;38.994;2022-10-04T03:37:12;100841.97;;;13.75;72.82
50684;BME280;36654;45.042;38.994;2022-10-04T03:39:44;100850.88;;;13.74;73.51
50684;BME280;36654;45.042;38.994;2022-10-04T03:42:21;100849.09;;;13.73;74.06
50684;BME280;36654;45.042;38.994;2022-10-04T03:44:51;100850.88;;;13.74;74.24
50684;BME280;36654;45.042;38.994;2022-10-04T03:47:36;100853.53;;;13.78;74.45
50684;BME280;36654;45.042;38.994;2022-10-04T03:50:23;100851.72;;;13.90;74.23
50684;BME280;36654;45.042;38.994;2022-10-04T03:52:54;100847.31;;;14.01;74.16
50684;BME280;36654;45.042;38.994;2022-10-04T03:55:24;100838.41;;;14.00;73.92
50684;BME280;36654;45.042;38.994;2022-10-04T03:57:55;100847.28;;;14.09;73.88
50684;BME280;36654;45.042;38.994;2022-10-04T04:00:21;100838.38;;;14.10;73.59
50684;BME280;36654;45.042;38.994;2022-10-04T04:03:00;100834.84;;;14.14;73.60
50684;BME280;36654;45.042;38.994;2022-10-04T04:05:31;100847.28;;;14.21;73.67
50684;BME280;36654;45.042;38.994;2022-10-04T04:08:10;100849.91;;;14.24;73.59
50684;BME280;36654;45.042;38.994;2022-10-04T04:10:45;100794.00;;;13.96;73.46
50684;BME280;36654;45.042;38.994;2022-10-04T04:13:38;100850.78;;;14.32;73.53
50684;BME280;36654;45.042;38.994;2022-10-04T04:16:08;100853.47;;;14.35;73.39
50684;BME280;36654;45.042;38.994;2022-10-04T04:18:37;100859.66;;;14.56;73.25
50684;BME280;36654;45.042;38.994;2022-10-04T04:21:06;100848.94;;;14.68;72.86
50684;BME280;36654;45.042;38.994;2022-10-04T04:23:38;100821.38;;;14.60;72.24
50684;BME280;36654;45.042;38.994;2022-10-04T04:26:37;100874.63;;;14.98;71.72
50684;BME280;36654;45.042;38.994;2022-10-04T04:31:49;100877.19;;;15.12;70.73
50684;BME280;36654;45.042;38.994;2022-10-04T04:34:58;100896.75;;;15.17;70.35
50684;BME280;36654;45.042;38.994;2022-10-04T04:37:25;100891.44;;;15.14;70.00
50684;BME280;36654;45.042;38.994;2022-10-04T04:39:51;100886.97;;;15.19;69.92
50684;BME280;36654;45.042;38.994;2022-10-04T04:42:34;100887.84;;;15.21;70.01
50684;BME280;36654;45.042;38.994;2022-10-04T04:45:05;100891.44;;;15.14;69.66
50684;BME280;36654;45.042;38.994;2022-10-04T04:47:46;100892.31;;;15.18;69.57
50684;BME280;36654;45.042;38.994;2022-10-04T04:55:42;100915.38;;;15.36;68.91
50684;BME280;36654;45.042;38.994;2022-10-04T04:58:15;100921.56;;;15.41;68.68
50684;BME280;36654;45.042;38.994;2022-10-04T05:00:57;100918.91;;;15.41;68.49
50684;BME280;36654;45.042;38.994;2022-10-04T05:03:24;100918.03;;;15.40;68.35
50684;BME280;36654;45.042;38.994;2022-10-04T05:05:51;100925.13;;;15.40;68.22
50684;BME280;36654;45.042;38.994;2022-10-04T05:08:27;100923.34;;;15.39;68.13
50684;BME280;36654;45.042;38.994;2022-10-04T05:13:25;100909.09;;;15.43;68.14
50684;BME280;36654;45.042;38.994;2022-10-04T05:15:56;100909.88;;;15.57;67.70
50684;BME280;36654;45.042;38.994;2022-10-04T05:18:32;100899.25;;;15.45;67.22
50684;BME280;36654;45.042;38.994;2022-10-04T05:21:26;100913.47;;;15.50;67.66
50684;BME280;36654;45.042;38.994;2022-10-04T05:23:54;100913.50;;;15.48;67.77
50684;BME280;36654;45.042;38.994;2022-10-04T05:26:29;100917.91;;;15.54;67.98
50684;BME280;36654;45.042;38.994;2022-10-04T05:28:58;100924.13;;;15.61;67.95
50684;BME280;36654;45.042;38.994;2022-10-04T05:31:44;100926.75;;;15.68;67.91
50684;BME280;36654;45.042;38.994;2022-10-04T05:34:24;100932.09;;;15.71;67.76
50684;BME280;36654;45.042;38.994;2022-10-04T05:37:17;100896.53;;;15.60;67.56
50684;BME280;36654;45.042;38.994;2022-10-04T05:42:45;100928.41;;;15.85;67.48
50684;BME280;36654;45.042;38.994;2022-10-04T05:45:20;100921.28;;;15.87;67.34
50684;BME280;36654;45.042;38.994;2022-10-04T05:47:52;100914.22;;;15.83;67.46
50684;BME280;36654;45.042;38.994;2022-10-04T05:50:29;100884.88;;;15.66;67.12
50684;BME280;36654;45.042;38.994;2022-10-04T05:53:50;100921.25;;;15.90;66.79
50684;BME280;36654;45.042;38.994;2022-10-04T05:56:35;100924.88;;;15.86;66.69
50684;BME280;36654;45.042;38.994;2022-10-04T06:05:27;100935.41;;;16.04;66.02
50684;BME280;36654;45.042;38.994;2022-10-04T06:08:48;100936.25;;;16.09;65.71
50684;BME280;36654;45.042;38.994;2022-10-04T06:16:42;100942.38;;;16.24;64.94
50684;BME280;36654;45.042;38.994;2022-10-04T06:19:33;100947.63;;;16.36;65.15
50684;BME280;36654;45.042;38.994;2022-10-04T06:22:13;100949.31;;;16.45;64.81
50684;BME280;36654;45.042;38.994;2022-10-04T06:24:40;100943.97;;;16.46;64.46
50684;BME280;36654;45.042;38.994;2022-10-04T06:30:14;100940.28;;;16.56;64.21
50684;BME280;36654;45.042;38.994;2022-10-04T06:38:33;100958.91;;;16.67;64.09
50684;BME280;36654;45.042;38.994;2022-10-04T06:46:47;100965.13;;;16.71;63.99
50684;BME280;36654;45.042;38.994;2022-10-04T07:00:55;100973.75;;;17.00;63.05
50684;BME280;36654;45.042;38.994;2022-10-04T07:03:25;100971.91;;;17.06;62.79
50684;BME280;36654;45.042;38.994;2022-10-04T07:06:02;100971.88;;;17.09;62.08
50684;BME280;36654;45.042;38.994;2022-10-04T07:11:11;100971.72;;;17.21;61.55
50684;BME280;36654;45.042;38.994;2022-10-04T07:24:56;100968.63;;;18.15;59.66
50684;BME280;36654;45.042;38.994;2022-10-04T07:28:03;100966.53;;;18.32;59.37
50684;BME280;36654;45.042;38.994;2022-10-04T07:33:23;100980.66;;;18.44;59.02
50684;BME280;36654;45.042;38.994;2022-10-04T07:38:49;100992.91;;;18.60;58.98
50684;BME280;36654;45.042;38.994;2022-10-04T07:44:05;100963.19;;;18.69;58.81
50684;BME280;36654;45.042;38.994;2022-10-04T07:46:48;101006.53;;;18.99;58.37
50684;BME280;36654;45.042;38.994;2022-10-04T07:49:21;101014.25;;;19.17;58.08
50684;BME280;36654;45.042;38.994;2022-10-04T08:00:20;101007.19;;;19.55;56.46
50684;BME280;36654;45.042;38.994;2022-10-04T08:05:44;101008.69;;;19.69;54.31
50684;BME280;36654;45.042;38.994;2022-10-04T08:08:21;101007.72;;;19.73;53.81
50684;BME280;36654;45.042;38.994;2022-10-04T08:13:57;101000.19;;;19.89;53.51
50684;BME280;36654;45.042;38.994;2022-10-04T08:17:06;101000.84;;;19.98;53.46
50684;BME280;36654;45.042;38.994;2022-10-04T08:26:06;101014.97;;;20.10;53.82
50684;BME280;36654;45.042;38.994;2022-10-04T08:31:56;100990.00;;;20.01;54.03
50684;BME280;36654;45.042;38.994;2022-10-04T08:53:45;101030.25;;;20.81;53.54
50684;BME280;36654;45.042;38.994;2022-10-04T08:59:28;101034.53;;;20.89;53.06
50684;BME280;36654;45.042;38.994;2022-10-04T09:10:35;101019.34;;;21.18;52.87
50684;BME280;36654;45.042;38.994;2022-10-04T09:15:51;101022.38;;;21.39;52.46
50684;BME280;36654;45.042;38.994;2022-10-04T09:18:28;101020.34;;;21.47;52.19
50684;BME280;36654;45.042;38.994;2022-10-04T09:21:12;101018.31;;;21.55;52.23
50684;BME280;36654;45.042;38.994;2022-10-04T09:29:38;101017.97;;;21.95;51.08
50684;BME280;36654;45.042;38.994;2022-10-04T09:37:32;101020.31;;;22.06;49.65
50684;BME280;36654;45.042;38.994;2022-10-04T09:47:47;101014.38;;;21.95;49.24
50684;BME280;36654;45.042;38.994;2022-10-04T09:56:26;101014.28;;;21.70;48.06
50684;BME280;36654;45.042;38.994;2022-10-04T10:07:20;101030.38;;;21.71;47.45
50684;BME280;36654;45.042;38.994;2022-10-04T10:26:55;101022.66;;;21.89;46.50
50684;BME280;36654;45.042;38.994;2022-10-04T10:29:50;101012.53;;;21.97;46.84
50684;BME280;36654;45.042;38.994;2022-10-04T10:35:12;101003.00;;;21.85;46.13
50684;BME280;36654;45.042;38.994;2022-10-04T10:38:07;101004.72;;;21.88;46.17
50684;BME280;36654;45.042;38.994;2022-10-04T10:41:06;101008.91;;;21.96;46.31
50684;BME280;36654;45.042;38.994;2022-10-04T11:03:22;101023.09;;;22.33;45.52
50684;BME280;36654;45.042;38.994;2022-10-04T11:06:00;101034.19;;;22.24;45.76
50684;BME280;36654;45.042;38.994;2022-10-04T11:08:38;101010.44;;;22.07;46.28
50684;BME280;36654;45.042;38.994;2022-10-04T11:28:35;101040.53;;;21.93;47.06
50684;BME280;36654;45.042;38.994;2022-10-04T11:31:38;101055.03;;;21.89;47.37
50684;BME280;36654;45.042;38.994;2022-10-04T12:07:52;101072.66;;;22.32;46.90
50684;BME280;36654;45.042;38.994;2022-10-04T12:10:33;101064.34;;;22.38;47.03
50684;BME280;36654;45.042;38.994;2022-10-04T12:26:28;101095.91;;;22.36;46.93
50684;BME280;36654;45.042;38.994;2022-10-04T12:49:15;101123.00;;;22.03;47.82
50684;BME280;36654;45.042;38.994;2022-10-04T12:52:16;101125.81;;;21.98;48.17
50684;BME280;36654;45.042;38.994;2022-10-04T12:54:46;101130.19;;;22.04;48.25
50684;BME280;36654;45.042;38.994;2022-10-04T12:57:31;101128.03;;;22.15;48.26
50684;BME280;36654;45.042;38.994;2022-10-04T13:00:21;101126.19;;;22.16;48.26
50684;BME280;36654;45.042;38.994;2022-10-04T13:10:55;101129.16;;;22.38;47.45
50684;BME280;36654;45.042;38.994;2022-10-04T13:19:18;101129.16;;;22.38;47.85
50684;BME280;36654;45.042;38.994;2022-10-04T13:21:51;101120.22;;;22.36;47.74
50684;BME280;36654;45.042;38.994;2022-10-04T13:29:35;101125.81;;;22.30;47.89
50684;BME280;36654;45.042;38.994;2022-10-04T13:34:43;101130.53;;;22.23;47.14
50684;BME280;36654;45.042;38.994;2022-10-04T13:46:01;101148.88;;;22.10;47.46
50684;BME280;36654;45.042;38.994;2022-10-04T13:59:15;101159.28;;;21.93;47.34
50684;BME280;36654;45.042;38.994;2022-10-04T14:21:19;101179.81;;;21.67;48.15
50684;BME280;36654;45.042;38.994;2022-10-04T14:26:47;101197.13;;;21.59;48.16
50684;BME280;36654;45.042;38.994;2022-10-04T14:32:25;101197.50;;;21.45;48.21
50684;BME280;36654;45.042;38.994;2022-10-04T14:40:26;101227.59;;;21.26;48.45
50684;BME280;36654;45.042;38.994;2022-10-04T14:46:18;101220.94;;;21.05;48.89
50684;BME280;36654;45.042;38.994;2022-10-04T14:55:25;101221.59;;;20.79;49.20
50684;BME280;36654;45.042;38.994;2022-10-04T15:01:06;101231.09;;;20.57;49.42
50684;BME280;36654;45.042;38.994;2022-10-04T15:06:47;101232.31;;;20.39;49.75
50684;BME280;36654;45.042;38.994;2022-10-04T15:09:38;101243.00;;;20.43;49.87
50684;BME280;36654;45.042;38.994;2022-10-04T15:20:27;101267.56;;;20.28;50.96
50684;BME280;36654;45.042;38.994;2022-10-04T15:23:06;101278.41;;;20.23;51.11
50684;BME280;36654;45.042;38.994;2022-10-04T15:25:39;101282.03;;;20.21;51.41
50684;BME280;36654;45.042;38.994;2022-10-04T15:33:31;101285.97;;;20.04;52.43
50684;BME280;36654;45.042;38.994;2022-10-04T15:36:33;101295.00;;;20.00;53.20
50684;BME280;36654;45.042;38.994;2022-10-04T15:42:12;101312.31;;;19.86;53.86
50684;BME280;36654;45.042;38.994;2022-10-04T15:45:05;101319.59;;;19.80;54.21
50684;BME280;36654;45.042;38.994;2022-10-04T15:56:41;101335.38;;;19.46;55.17
50684;BME280;36654;45.042;38.994;2022-10-04T16:02:15;101358.81;;;19.38;55.49
50684;BME280;36654;45.042;38.994;2022-10-04T16:10:26;101358.06;;;19.27;55.80
50684;BME280;36654;45.042;38.994;2022-10-04T16:15:35;101352.91;;;19.13;55.77
50684;BME280;36654;45.042;38.994;2022-10-04T16:23:35;101375.34;;;19.10;55.87
50684;BME280;36654;45.042;38.994;2022-10-04T16:26:08;101382.53;;;19.08;56.02
50684;BME280;36654;45.042;38.994;2022-10-04T16:31:40;101389.72;;;19.06;56.06
50684;BME280;36654;45.042;38.994;2022-10-04T16:34:25;101389.72;;;19.06;56.22
50684;BME280;36654;45.042;38.994;2022-10-04T16:37:13;101392.47;;;19.02;56.20
50684;BME280;36654;45.042;38.994;2022-10-04T16:45:25;101374.88;;;18.78;55.99
50684;BME280;36654;45.042;38.994;2022-10-04T16:56:08;101313.78;;;18.22;56.34
50684;BME280;36654;45.042;38.994;2022-10-04T16:58:43;101389.34;;;18.61;56.53
50684;BME280;36654;45.042;38.994;2022-10-04T17:06:54;101428.72;;;18.64;57.13
50684;BME280;36654;45.042;38.994;2022-10-04T17:09:45;101426.94;;;18.61;57.31
50684;BME280;36654;45.042;38.994;2022-10-04T17:12:41;101421.63;;;18.58;57.38
50684;BME280;36654;45.042;38.994;2022-10-04T17:17:56;101446.66;;;18.60;58.02
50684;BME280;36654;45.042;38.994;2022-10-04T17:36:59;101462.38;;;18.06;60.57
50684;BME280;36654;45.042;38.994;2022-10-04T17:42:45;101475.72;;;18.15;60.86
50684;BME280;36654;45.042;38.994;2022-10-04T17:54:17;101439.34;;;17.77;61.55
50684;BME280;36654;45.042;38.994;2022-10-04T17:59:41;101469.69;;;17.79;61.68
50684;BME280;36654;45.042;38.994;2022-10-04T18:04:47;101514.28;;;18.05;61.88
50684;BME280;36654;45.042;38.994;2022-10-04T18:07:22;101471.47;;;17.86;61.58
50684;BME280;36654;45.042;38.994;2022-10-04T18:09:57;101512.41;;;18.13;61.80
50684;BME280;36654;45.042;38.994;2022-10-04T18:12:30;101523.09;;;18.22;61.75
50684;BME280;36654;45.042;38.994;2022-10-04T18:15:21;101511.47;;;18.19;61.87
50684;BME280;36654;45.042;38.994;2022-10-04T18:18:04;101489.28;;;18.00;62.10
50684;BME280;36654;45.042;38.994;2022-10-04T18:20:38;101478.59;;;17.91;62.13
50684;BME280;36654;45.042;38.994;2022-10-04T18:23:17;101524.03;;;18.14;62.31
50684;BME280;36654;45.042;38.994;2022-10-04T18:25:45;101523.16;;;18.13;62.06
50684;BME280;36654;45.042;38.994;2022-10-04T18:28:20;101531.22;;;18.08;62.26
50684;BME280;36654;45.042;38.994;2022-10-04T18:30:51;101535.72;;;18.05;62.50
50684;BME280;36654;45.042;38.994;2022-10-04T18:33:21;101530.41;;;17.96;62.53
50684;BME280;36654;45.042;38.994;2022-10-04T18:38:39;101533.09;;;17.96;63.11
50684;BME280;36654;45.042;38.994;2022-10-04T18:43:50;101470.72;;;17.63;63.18
50684;BME280;36654;45.042;38.994;2022-10-04T18:46:21;101514.34;;;17.89;63.59
50684;BME280;36654;45.042;38.994;2022-10-04T18:57:35;101507.25;;;17.84;64.12
50684;BME280;36654;45.042;38.994;2022-10-04T19:00:22;101507.22;;;17.79;64.23
50684;BME280;36654;45.042;38.994;2022-10-04T19:14:38;101516.31;;;17.58;65.10
50684;BME280;36654;45.042;38.994;2022-10-04T19:20:00;101512.75;;;17.58;65.40
50684;BME280;36654;45.042;38.994;2022-10-04T19:25:03;101529.75;;;17.55;65.47
50684;BME280;36654;45.042;38.994;2022-10-04T19:30:40;101539.56;;;17.52;65.83
50684;BME280;36654;45.042;38.994;2022-10-04T19:34:18;101557.50;;;17.45;66.19
50684;BME280;36654;45.042;38.994;2022-10-04T19:37:07;101563.78;;;17.27;66.52
50684;BME280;36654;45.042;38.994;2022-10-04T19:40:05;101572.72;;;17.28;66.78
50684;BME280;36654;45.042;38.994;2022-10-04T19:45:40;101572.72;;;17.28;66.76
50684;BME280;36654;45.042;38.994;2022-10-04T19:48:18;101578.97;;;17.28;66.90
50684;BME280;36654;45.042;38.994;2022-10-04T19:50:48;101581.66;;;17.22;67.10
50684;BME280;36654;45.042;38.994;2022-10-04T19:53:29;101579.84;;;17.33;66.98
50684;BME280;36654;45.042;38.994;2022-10-04T19:56:03;101573.59;;;17.30;66.61
50684;BME280;36654;45.042;38.994;2022-10-04T19:58:44;101581.63;;;17.34;66.51
50684;BME280;36654;45.042;38.994;2022-10-04T20:01:13;101548.63;;;17.17;66.42
50684;BME280;36654;45.042;38.994;2022-10-04T20:03:40;101581.63;;;17.37;66.77
50684;BME280;36654;45.042;38.994;2022-10-04T20:06:07;101580.72;;;17.32;66.90
50684;BME280;36654;45.042;38.994;2022-10-04T20:11:25;101585.25;;;17.18;67.15
50684;BME280;36654;45.042;38.994;2022-10-04T20:17:02;101586.16;;;17.20;67.32
50684;BME280;36654;45.042;38.994;2022-10-04T20:27:00;101605.78;;;17.28;67.23
50684;BME280;36654;45.042;38.994;2022-10-04T20:32:10;101604.00;;;17.24;67.22
50684;BME280;36654;45.042;38.994;2022-10-04T20:34:59;101604.88;;;17.24;67.37
50684;BME280;36654;45.042;38.994;2022-10-04T20:45:49;101625.41;;;17.27;67.23
50684;BME280;36654;45.042;38.994;2022-10-04T20:48:33;101623.66;;;17.23;67.21
50684;BME280;36654;45.042;38.994;2022-10-04T20:51:06;101636.16;;;17.30;67.08
50684;BME280;36654;45.042;38.994;2022-10-04T20:53:34;101639.69;;;17.29;67.10
50684;BME280;36654;45.042;38.994;2022-10-04T20:56:18;101637.06;;;17.28;66.99
50684;BME280;36654;45.042;38.994;2022-10-04T20:58:50;101648.63;;;17.31;66.96
50684;BME280;36654;45.042;38.994;2022-10-04T21:01:30;101647.75;;;17.29;67.17
50684;BME280;36654;45.042;38.994;2022-10-04T21:06:54;101654.00;;;17.31;67.30
50684;BME280;36654;45.042;38.994;2022-10-04T21:09:21;101655.78;;;17.29;67.46
50684;BME280;36654;45.042;38.994;2022-10-04T21:11:49;101668.28;;;17.27;67.55
50684;BME280;36654;45.042;38.994;2022-10-04T21:14:29;101652.22;;;17.30;67.45
50684;BME280;36654;45.042;38.994;2022-10-04T21:16:56;101654.91;;;17.24;67.36
50684;BME280;36654;45.042;38.994;2022-10-04T21:22:04;101671.84;;;17.32;67.56
50684;BME280;36654;45.042;38.994;2022-10-04T21:24:34;101678.13;;;17.33;67.30
50684;BME280;36654;45.042;38.994;2022-10-04T21:27:00;101682.56;;;17.29;67.86
50684;BME280;36654;45.042;38.994;2022-10-04T21:29:26;101688.84;;;17.31;68.13
50684;BME280;36654;45.042;38.994;2022-10-04T21:31:51;101676.34;;;17.29;68.31
50684;BME280;36654;45.042;38.994;2022-10-04T21:34:17;101679.03;;;17.30;68.18
50684;BME280;36654;45.042;38.994;2022-10-04T21:36:42;101675.47;;;17.25;68.19
50684;BME280;36654;45.042;38.994;2022-10-04T21:39:08;101672.75;;;17.22;68.12
50684;BME280;36654;45.042;38.994;2022-10-04T21:41:34;101687.94;;;17.29;68.27
50684;BME280;36654;45.042;38.994;2022-10-04T21:43:59;101672.75;;;17.22;68.18
50684;BME280;36654;45.042;38.994;2022-10-04T21:46:25;101650.47;;;17.11;68.31
50684;BME280;36654;45.042;38.994;2022-10-04T21:48:50;101680.78;;;17.30;68.33
50684;BME280;36654;45.042;38.994;2022-10-04T21:51:16;101680.81;;;17.28;68.24
50684;BME280;36654;45.042;38.994;2022-10-04T21:53:41;101670.09;;;17.25;68.31
50684;BME280;36654;45.042;38.994;2022-10-04T21:56:07;101675.47;;;17.25;68.42
50684;BME280;36654;45.042;38.994;2022-10-04T21:58:33;101677.25;;;17.23;68.50
50684;BME280;36654;45.042;38.994;2022-10-04T22:00:58;101679.03;;;17.21;68.57
50684;BME280;36654;45.042;38.994;2022-10-04T22:03:24;101678.13;;;17.20;68.70
50684;BME280;36654;45.042;38.994;2022-10-04T22:05:50;101684.41;;;17.18;69.10
50684;BME280;36654;45.042;38.994;2022-10-04T22:08:15;101680.81;;;17.10;69.21
50684;BME280;36654;45.042;38.994;2022-10-04T22:10:41;101675.47;;;17.05;69.39
50684;BME280;36654;45.042;38.994;2022-10-04T22:13:08;101679.94;;;17.00;69.87
50684;BME280;36654;45.042;38.994;2022-10-04T22:15:34;101673.69;;;16.90;70.09
50684;BME280;36654;45.042;38.994;2022-10-04T22:17:59;101677.25;;;16.92;70.22
50684;BME280;36654;45.042;38.994;2022-10-04T22:20:25;101666.56;;;16.83;70.46
50684;BME280;36654;45.042;38.994;2022-10-04T22:22:52;101671.91;;;16.86;70.41
50684;BME280;36654;45.042;38.994;2022-10-04T22:25:21;101678.13;;;16.94;70.28
50684;BME280;36654;45.042;38.994;2022-10-04T22:27:47;101679.06;;;16.93;70.00
50684;BME280;36654;45.042;38.994;2022-10-04T22:30:27;101683.50;;;17.00;70.14
50684;BME280;36654;45.042;38.994;2022-10-04T22:32:55;101685.28;;;17.03;69.69
50684;BME280;36654;45.042;38.994;2022-10-04T22:35:22;101668.31;;;16.96;69.78
50684;BME280;36654;45.042;38.994;2022-10-04T22:37:48;101674.59;;;17.00;69.67
50684;BME280;36654;45.042;38.994;2022-10-04T22:40:19;101683.50;;;17.07;70.16
50684;BME280;36654;45.042;38.994;2022-10-04T22:42:53;101672.81;;;17.05;69.79
50684;BME280;36654;45.042;38.994;2022-10-04T22:45:25;101673.69;;;17.09;69.88
50684;BME280;36654;45.042;38.994;2022-10-04T22:47:53;101672.78;;;17.02;70.07
50684;BME280;36654;45.042;38.994;2022-10-04T22:50:30;101668.34;;;17.06;70.01
50684;BME280;36654;45.042;38.994;2022-10-04T22:53:00;101667.44;;;17.05;70.07
50684;BME280;36654;45.042;38.994;2022-10-04T22:55:26;101667.44;;;17.03;70.28
50684;BME280;36654;45.042;38.994;2022-10-04T22:57:52;101621.88;;;16.76;70.10
50684;BME280;36654;45.042;38.994;2022-10-04T23:00:17;101645.13;;;16.80;70.17
50684;BME280;36654;45.042;38.994;2022-10-04T23:02:43;101679.94;;;16.98;70.11